createdAt,value
2022-09-15T00:02:22.076Z,71.49
2022-09-15T00:04:52.336Z,71.29
2022-09-15T00:07:22.260Z,71.49
2022-09-15T00:09:52.327Z,71.33
2022-09-15T00:12:21.518Z,71.14
2022-09-15T00:14:51.115Z,71.27
2022-09-15T00:17:22.216Z,71.51
2022-09-15T00:19:51.564Z,71.35
2022-09-15T00:22:21.161Z,71.44
2022-09-15T00:24:50.718Z,71.51
2022-09-15T00:27:20.870Z,71.72
2022-09-15T00:29:51.084Z,71.56
2022-09-15T00:32:22.007Z,71.35
2022-09-15T00:34:52.258Z,71.65
2022-09-15T00:37:21.762Z,71.68
2022-09-15T00:39:52.232Z,71.91
2022-09-15T00:42:23.295Z,71.88
2022-09-15T00:44:56.346Z,71.74
2022-09-15T00:47:30.435Z,72.30
2022-09-15T00:50:03.494Z,72.08
2022-09-15T00:52:38.094Z,72.31
2022-09-15T00:55:11.105Z,71.94
2022-09-15T00:57:46.700Z,71.26
2022-09-15T01:00:19.924Z,71.04
2022-09-15T01:02:51.421Z,71.10
2022-09-15T01:05:23.163Z,71.15
2022-09-15T01:07:56.855Z,71.27
2022-09-15T01:10:28.344Z,71.45
2022-09-15T01:13:01.605Z,71.82
2022-09-15T01:15:35.868Z,72.19
2022-09-15T01:18:15.686Z,72.22
2022-09-15T01:21:04.265Z,72.36
2022-09-15T01:24:12.083Z,71.78
2022-09-15T01:27:09.779Z,72.20
2022-09-15T01:30:16.732Z,71.83
2022-09-15T01:33:11.295Z,72.01
2022-09-15T01:35:52.894Z,71.93
2022-09-15T01:38:31.095Z,72.29
2022-09-15T01:41:05.863Z,72.33
2022-09-15T01:43:38.148Z,72.22
2022-09-15T01:46:09.952Z,72.37
2022-09-15T01:48:40.669Z,72.28
2022-09-15T01:51:10.177Z,72.28
2022-09-15T01:53:39.103Z,72.27
2022-09-15T01:56:09.897Z,72.36
2022-09-15T01:58:40.274Z,72.78
2022-09-15T02:01:15.382Z,72.62
2022-09-15T02:03:47.892Z,72.97
2022-09-15T02:06:24.312Z,73.12
2022-09-15T02:08:57.830Z,72.39
2022-09-15T02:11:28.251Z,72.40
2022-09-15T02:14:11.617Z,72.79
2022-09-15T02:16:46.938Z,72.71
2022-09-15T02:19:21.651Z,72.70
2022-09-15T02:21:58.755Z,72.92
2022-09-15T02:24:32.469Z,72.72
2022-09-15T02:27:04.098Z,72.66
2022-09-15T02:29:37.774Z,72.58
2022-09-15T02:32:10.103Z,72.64
2022-09-15T02:34:42.901Z,72.78
2022-09-15T02:37:12.699Z,72.88
2022-09-15T02:39:47.877Z,72.50
2022-09-15T02:42:25.456Z,72.66
2022-09-15T02:44:54.517Z,72.89
2022-09-15T02:47:25.798Z,73.14
2022-09-15T02:49:54.332Z,73.01
2022-09-15T02:52:23.705Z,73.03
2022-09-15T02:54:52.656Z,73.06
2022-09-15T02:57:21.503Z,72.62
2022-09-15T03:00:07.851Z,72.53
2022-09-15T03:02:38.844Z,72.62
2022-09-15T03:05:09.159Z,72.78
2022-09-15T03:07:38.717Z,72.65
2022-09-15T03:10:10.009Z,72.97
2022-09-15T03:12:39.533Z,73.38
2022-09-15T03:15:10.226Z,72.70
2022-09-15T03:17:42.720Z,72.75
2022-09-15T03:20:14.295Z,72.90
2022-09-15T03:22:43.486Z,73.10
2022-09-15T03:25:13.630Z,72.84
2022-09-15T03:27:42.670Z,72.40
2022-09-15T03:30:12.942Z,72.55
2022-09-15T03:32:43.520Z,72.81
2022-09-15T03:35:12.126Z,73.26
2022-09-15T03:37:41.028Z,73.12
2022-09-15T03:40:11.502Z,72.69
2022-09-15T03:42:40.391Z,72.59
2022-09-15T03:45:09.749Z,72.85
2022-09-15T03:47:38.759Z,72.88
2022-09-15T03:50:09.767Z,72.89
2022-09-15T03:52:38.647Z,72.51
2022-09-15T03:55:08.531Z,72.81
2022-09-15T03:57:39.098Z,72.76
2022-09-15T04:00:09.931Z,73.25
2022-09-15T04:02:38.731Z,72.94
2022-09-15T04:05:10.058Z,73.18
2022-09-15T04:07:38.951Z,72.96
2022-09-15T04:10:09.213Z,73.06
2022-09-15T04:12:38.970Z,73.17
2022-09-15T04:15:08.673Z,72.93
2022-09-15T04:17:37.806Z,72.98
2022-09-15T04:20:09.475Z,73.07
2022-09-15T04:22:38.203Z,72.98
2022-09-15T04:25:09.542Z,73.03
2022-09-15T04:27:39.769Z,72.92
2022-09-15T04:30:10.125Z,73.30
2022-09-15T04:32:40.095Z,72.86
2022-09-15T04:35:11.766Z,73.21
2022-09-15T04:37:40.355Z,72.81
2022-09-15T04:40:10.543Z,72.46
2022-09-15T04:42:39.386Z,73.03
2022-09-15T04:45:09.937Z,72.77
2022-09-15T04:47:39.271Z,72.83
2022-09-15T04:50:10.437Z,72.96
2022-09-15T04:52:39.547Z,72.81
2022-09-15T04:55:08.930Z,73.08
2022-09-15T04:57:38.231Z,72.63
2022-09-15T05:00:08.377Z,72.77
2022-09-15T05:02:38.262Z,72.72
2022-09-15T05:05:08.182Z,72.74
2022-09-15T05:07:38.155Z,72.97
2022-09-15T05:10:09.286Z,72.81
2022-09-15T05:12:40.330Z,72.80
2022-09-15T05:15:10.313Z,72.85
2022-09-15T05:17:39.677Z,72.83
2022-09-15T05:20:09.384Z,72.70
2022-09-15T05:22:41.954Z,72.57
2022-09-15T05:25:11.926Z,72.79
2022-09-15T05:27:40.839Z,72.86
2022-09-15T05:33:01.856Z,72.54
2022-09-15T05:35:30.960Z,72.90
2022-09-15T05:38:01.441Z,72.94
2022-09-15T05:40:30.613Z,72.99
2022-09-15T05:42:59.918Z,73.15
2022-09-15T05:45:29.788Z,72.94
2022-09-15T05:47:59.988Z,73.13
2022-09-15T05:50:30.848Z,73.10
2022-09-15T05:53:01.966Z,72.95
2022-09-15T05:55:31.451Z,73.22
2022-09-15T05:58:00.779Z,72.92
2022-09-15T06:00:30.460Z,73.22
2022-09-15T06:03:02.953Z,73.06
2022-09-15T06:05:32.297Z,73.10
2022-09-15T06:08:03.790Z,72.98
2022-09-15T06:10:34.497Z,73.12
2022-09-15T06:13:03.900Z,72.19
2022-09-15T06:15:33.207Z,72.59
2022-09-15T06:18:02.929Z,72.71
2022-09-15T06:20:31.867Z,72.81
2022-09-15T06:23:02.996Z,72.72
2022-09-15T06:25:32.098Z,72.61
2022-09-15T06:28:01.082Z,72.72
2022-09-15T06:30:31.237Z,72.66
2022-09-15T06:33:00.475Z,72.64
2022-09-15T06:35:29.437Z,72.60
2022-09-15T06:37:58.522Z,72.94
2022-09-15T06:40:29.354Z,73.31
2022-09-15T06:42:58.745Z,72.93
2022-09-15T06:45:29.440Z,72.59
2022-09-15T06:48:22.941Z,72.94
2022-09-15T06:50:56.400Z,72.86
2022-09-15T06:53:25.931Z,72.50
2022-09-15T06:55:57.330Z,72.62
2022-09-15T06:58:26.348Z,72.41
2022-09-15T07:00:55.262Z,72.49
2022-09-15T07:03:24.573Z,72.51
2022-09-15T07:05:53.710Z,72.63
2022-09-15T07:08:22.664Z,72.55
2022-09-15T07:10:52.503Z,72.65
2022-09-15T07:13:23.493Z,72.49
2022-09-15T07:15:53.865Z,72.22
2022-09-15T07:18:23.753Z,72.06
2022-09-15T07:20:54.117Z,71.85
2022-09-15T07:23:22.914Z,71.91
2022-09-15T07:25:52.346Z,72.20
2022-09-15T07:28:23.479Z,72.13
2022-09-15T07:30:52.574Z,71.88
2022-09-15T07:33:22.567Z,71.71
2022-09-15T07:35:52.063Z,71.61
2022-09-15T07:38:22.343Z,71.62
2022-09-15T07:40:51.469Z,71.39
2022-09-15T07:43:20.891Z,71.11
2022-09-15T07:45:51.550Z,71.25
2022-09-15T07:48:23.266Z,71.13
2022-09-15T07:50:55.527Z,71.36
2022-09-15T07:53:24.851Z,71.15
2022-09-15T07:55:54.609Z,70.96
2022-09-15T07:58:24.543Z,70.93
2022-09-15T08:00:55.619Z,71.31
2022-09-15T08:03:34.287Z,70.89
2022-09-15T08:06:04.984Z,70.95
2022-09-15T08:08:34.336Z,70.82
2022-09-15T08:11:07.904Z,70.75
2022-09-15T08:13:37.993Z,70.81
2022-09-15T08:16:09.625Z,70.78
2022-09-15T08:18:39.608Z,70.77
2022-09-15T08:21:10.685Z,70.79
2022-09-15T08:23:40.063Z,71.13
2022-09-15T08:26:13.905Z,70.54
2022-09-15T08:28:44.103Z,70.40
2022-09-15T08:31:16.106Z,70.58
2022-09-15T08:33:49.306Z,70.28
2022-09-15T08:36:18.817Z,70.25
2022-09-15T08:38:48.405Z,70.22
2022-09-15T08:41:23.569Z,70.24
2022-09-15T08:44:03.833Z,70.44
2022-09-15T08:46:38.757Z,70.24
2022-09-15T08:49:14.790Z,70.46
2022-09-15T08:51:47.866Z,70.50
2022-09-15T08:54:22.577Z,70.32
2022-09-15T08:56:53.066Z,70.24
2022-09-15T08:59:22.862Z,70.32
2022-09-15T09:02:07.272Z,70.51
2022-09-15T09:04:50.872Z,70.20
2022-09-15T09:07:47.882Z,70.03
2022-09-15T09:10:26.353Z,69.78
2022-09-15T09:13:14.044Z,69.80
2022-09-15T09:15:57.538Z,69.66
2022-09-15T09:18:58.139Z,69.77
2022-09-15T09:21:32.197Z,69.71
2022-09-15T09:24:07.383Z,69.70
2022-09-15T09:26:39.064Z,69.84
2022-09-15T09:29:15.249Z,69.70
2022-09-15T09:31:47.416Z,69.24
2022-09-15T09:34:25.874Z,69.10
2022-09-15T09:36:58.804Z,68.92
2022-09-15T09:39:29.263Z,68.63
2022-09-15T09:41:59.300Z,68.43
2022-09-15T09:44:32.093Z,68.28
2022-09-15T09:47:01.810Z,68.17
2022-09-15T09:49:46.913Z,68.25
2022-09-15T09:52:33.591Z,68.37
2022-09-15T09:55:04.271Z,68.26
2022-09-15T09:57:40.734Z,68.29
2022-09-15T10:00:36.053Z,68.19
2022-09-15T10:03:14.431Z,67.98
2022-09-15T10:05:46.412Z,67.67
2022-09-15T10:08:20.331Z,68.03
2022-09-15T10:10:54.085Z,67.95
2022-09-15T10:13:23.412Z,67.61
2022-09-15T10:15:56.957Z,67.73
2022-09-15T10:18:32.253Z,67.79
2022-09-15T10:21:04.333Z,67.54
2022-09-15T10:23:34.652Z,67.73
2022-09-15T10:26:22.920Z,67.80
2022-09-15T10:29:15.008Z,67.90
2022-09-15T10:31:45.586Z,67.17
2022-09-15T10:34:30.586Z,67.86
2022-09-15T10:37:17.619Z,67.36
2022-09-15T10:39:54.098Z,67.52
2022-09-15T10:42:34.101Z,67.51
2022-09-15T10:45:16.398Z,67.25
2022-09-15T10:48:00.741Z,67.13
2022-09-15T10:50:32.829Z,66.66
2022-09-15T10:53:16.031Z,67.32
2022-09-15T10:55:54.236Z,67.59
2022-09-15T10:58:42.234Z,67.75
2022-09-15T11:01:58.475Z,68.13
2022-09-15T11:04:45.854Z,67.90
2022-09-15T11:07:27.504Z,68.31
2022-09-15T11:10:06.761Z,68.42
2022-09-15T11:12:50.388Z,68.18
2022-09-15T11:15:33.900Z,68.56
2022-09-15T11:18:23.064Z,68.39
2022-09-15T11:21:08.093Z,68.48
2022-09-15T11:23:41.498Z,68.26
2022-09-15T11:26:18.707Z,68.74
2022-09-15T11:28:54.198Z,68.54
2022-09-15T11:31:28.813Z,68.29
2022-09-15T11:34:04.324Z,68.67
2022-09-15T11:36:39.331Z,68.57
2022-09-15T11:39:19.568Z,68.64
2022-09-15T11:41:56.704Z,68.56
2022-09-15T11:44:30.983Z,68.48
2022-09-15T11:47:24.268Z,68.36
2022-09-15T11:49:58.772Z,68.13
2022-09-15T11:52:44.571Z,68.33
2022-09-15T11:55:24.259Z,67.60
2022-09-15T11:58:04.793Z,67.26
2022-09-15T12:00:35.963Z,67.30
2022-09-15T12:03:18.203Z,66.20
2022-09-15T12:05:51.802Z,64.95
2022-09-15T12:08:27.207Z,64.33
2022-09-15T12:11:00.583Z,64.26
2022-09-15T12:13:32.968Z,63.83
2022-09-15T12:16:04.008Z,63.55
2022-09-15T12:18:43.772Z,63.94
2022-09-15T12:21:20.978Z,63.73
2022-09-15T12:23:59.952Z,63.66
2022-09-15T12:26:29.778Z,62.99
2022-09-15T12:29:02.685Z,62.56
2022-09-15T12:31:37.408Z,62.58
2022-09-15T12:34:30.667Z,62.47
2022-09-15T12:37:09.367Z,62.40
2022-09-15T12:39:41.410Z,62.20
2022-09-15T12:42:20.756Z,62.59
2022-09-15T12:44:56.047Z,62.38
2022-09-15T12:47:33.122Z,62.80
2022-09-15T12:50:25.368Z,63.28
2022-09-15T12:52:59.647Z,63.37
2022-09-15T12:55:31.920Z,63.69
2022-09-15T12:58:03.076Z,64.08
2022-09-15T13:04:09.018Z,63.77
2022-09-15T13:06:38.787Z,63.54
2022-09-15T13:09:28.482Z,62.96
2022-09-15T13:11:58.343Z,62.48
2022-09-15T13:14:34.762Z,61.67
2022-09-15T13:17:11.848Z,61.79
2022-09-15T13:19:47.005Z,61.72
2022-09-15T13:22:24.104Z,60.65
2022-09-15T13:25:00.909Z,60.43
2022-09-15T13:27:38.807Z,60.26
2022-09-15T13:30:26.253Z,60.30
2022-09-15T13:33:04.891Z,60.26
2022-09-15T13:35:49.422Z,60.74
2022-09-15T13:38:50.839Z,61.15
2022-09-15T13:41:48.723Z,61.40
2022-09-15T13:44:49.667Z,60.81
2022-09-15T13:47:31.612Z,61.10
2022-09-15T13:50:16.282Z,61.56
2022-09-15T13:53:05.372Z,61.35
2022-09-15T13:55:38.826Z,60.95
2022-09-15T14:01:12.613Z,60.11
2022-09-15T14:03:47.363Z,59.81
2022-09-15T14:06:21.238Z,60.12
2022-09-15T14:08:54.804Z,59.46
2022-09-15T14:11:28.561Z,58.80
2022-09-15T14:14:26.436Z,59.66
2022-09-15T14:16:57.562Z,59.29
2022-09-15T14:19:34.821Z,59.39
2022-09-15T14:22:26.388Z,59.72
2022-09-15T14:24:57.392Z,59.41
2022-09-15T14:27:29.435Z,60.00
2022-09-15T14:30:02.797Z,60.66
2022-09-15T14:32:38.870Z,60.90
2022-09-15T14:35:13.818Z,59.81
2022-09-15T14:37:52.581Z,58.84
2022-09-15T14:40:26.422Z,58.10
2022-09-15T14:42:55.556Z,58.12
2022-09-15T14:45:57.079Z,56.68
2022-09-15T14:48:28.400Z,56.33
2022-09-15T14:51:03.664Z,57.32
2022-09-15T14:53:37.831Z,57.01
2022-09-15T14:56:10.561Z,56.54
2022-09-15T14:58:45.670Z,57.07
2022-09-15T15:01:20.586Z,58.11
2022-09-15T15:03:56.074Z,57.48
2022-09-15T15:06:33.377Z,57.02
2022-09-15T15:09:08.975Z,57.49
2022-09-15T15:11:40.620Z,58.36
2022-09-15T15:14:11.962Z,57.77
2022-09-15T15:16:52.608Z,57.78
2022-09-15T15:19:36.558Z,57.98
2022-09-15T15:22:22.017Z,58.81
2022-09-15T15:24:57.332Z,59.39
2022-09-15T15:27:42.718Z,59.45
2022-09-15T15:30:40.122Z,60.30
2022-09-15T15:33:21.232Z,60.86
2022-09-15T15:36:08.925Z,61.11
2022-09-15T15:38:46.414Z,61.38
2022-09-15T15:41:22.845Z,61.06
2022-09-15T15:44:08.355Z,61.66
2022-09-15T15:46:50.651Z,62.85
2022-09-15T15:49:21.126Z,62.36
2022-09-15T15:51:50.983Z,62.72
2022-09-15T15:54:20.745Z,62.29
2022-09-15T15:56:52.338Z,62.95
2022-09-15T15:59:22.498Z,62.96
2022-09-15T16:01:54.983Z,62.84
2022-09-15T16:04:26.389Z,62.86
2022-09-15T16:06:56.085Z,62.82
2022-09-15T16:09:25.852Z,62.73
2022-09-15T16:14:27.451Z,63.04
2022-09-15T16:17:00.535Z,63.06
2022-09-15T16:19:30.614Z,63.26
2022-09-15T16:22:04.334Z,63.80
2022-09-15T16:24:34.107Z,63.46
2022-09-15T16:27:16.317Z,63.51
2022-09-15T16:29:46.632Z,63.25
2022-09-15T16:32:22.633Z,63.30
2022-09-15T16:34:54.630Z,63.38
2022-09-15T16:37:23.793Z,63.39
2022-09-15T16:39:54.515Z,63.52
2022-09-15T16:42:25.515Z,63.17
2022-09-15T16:44:54.916Z,62.82
2022-09-15T16:47:24.666Z,62.64
2022-09-15T16:49:53.957Z,62.37
2022-09-15T16:52:23.834Z,62.40
2022-09-15T16:54:53.596Z,62.45
2022-09-15T16:57:26.027Z,62.64
2022-09-15T16:59:55.750Z,62.91
2022-09-15T17:02:25.732Z,63.19
2022-09-15T17:04:55.473Z,63.25
2022-09-15T17:07:25.336Z,63.24
2022-09-15T17:09:55.541Z,63.48
2022-09-15T17:12:27.359Z,64.36
2022-09-15T17:14:56.681Z,64.41
2022-09-15T17:17:26.847Z,64.50
2022-09-15T17:19:56.989Z,64.62
2022-09-15T17:22:30.034Z,64.62
2022-09-15T17:25:00.013Z,64.39
2022-09-15T17:27:31.344Z,64.83
2022-09-15T17:30:00.270Z,64.78
2022-09-15T17:32:34.697Z,64.30
2022-09-15T17:35:04.416Z,64.64
2022-09-15T17:37:33.583Z,65.01
2022-09-15T17:40:04.713Z,65.15
2022-09-15T17:42:39.203Z,65.57
2022-09-15T17:45:20.278Z,65.53
2022-09-15T17:47:50.235Z,65.40
2022-09-15T17:50:22.788Z,65.44
2022-09-15T17:52:52.477Z,65.36
2022-09-15T17:55:23.986Z,65.56
2022-09-15T17:57:57.214Z,65.04
2022-09-15T18:00:28.871Z,64.73
2022-09-15T18:03:00.567Z,64.77
2022-09-15T18:05:32.034Z,64.61
2022-09-15T18:08:03.937Z,64.57
2022-09-15T18:10:35.072Z,64.52
2022-09-15T18:13:07.145Z,64.20
2022-09-15T18:15:37.356Z,64.03
2022-09-15T18:18:09.389Z,63.83
2022-09-15T18:20:40.612Z,63.75
2022-09-15T18:23:14.548Z,64.25
2022-09-15T18:25:44.491Z,64.29
2022-09-15T18:28:16.417Z,64.47
2022-09-15T18:30:48.378Z,64.75
2022-09-15T18:33:19.901Z,64.93
2022-09-15T18:35:50.044Z,64.13
2022-09-15T18:38:20.559Z,64.37
2022-09-15T18:40:51.034Z,64.71
2022-09-15T18:43:25.280Z,64.54
2022-09-15T18:45:59.288Z,64.60
2022-09-15T18:48:29.310Z,64.49
2022-09-15T18:50:59.215Z,64.54
2022-09-15T18:53:28.955Z,64.36
2022-09-15T18:55:58.632Z,64.84
2022-09-15T18:58:29.455Z,64.90
2022-09-15T19:01:01.256Z,64.93
2022-09-15T19:03:30.443Z,64.48
2022-09-15T19:06:04.538Z,64.56
2022-09-15T19:08:35.610Z,65.02
2022-09-15T19:11:05.688Z,64.50
2022-09-15T19:13:38.199Z,64.91
2022-09-15T19:16:10.365Z,64.75
2022-09-15T19:18:39.929Z,65.10
2022-09-15T19:21:11.511Z,65.26
2022-09-15T19:23:40.699Z,64.83
2022-09-15T19:26:13.905Z,65.11
2022-09-15T19:28:44.703Z,65.41
2022-09-15T19:31:15.612Z,65.18
2022-09-15T19:33:45.279Z,65.25
2022-09-15T19:36:28.021Z,65.30
2022-09-15T19:38:57.970Z,65.27
2022-09-15T19:41:27.070Z,65.71
2022-09-15T19:43:58.601Z,65.49
2022-09-15T19:46:28.480Z,64.97
2022-09-15T19:48:57.932Z,64.92
2022-09-15T19:51:27.359Z,65.74
2022-09-15T19:53:57.557Z,65.76
2022-09-15T19:56:31.423Z,65.56
2022-09-15T19:59:02.134Z,65.74
2022-09-15T20:01:32.877Z,65.39
2022-09-15T20:04:03.211Z,65.50
2022-09-15T20:06:33.075Z,65.16
2022-09-15T20:09:02.791Z,65.50
2022-09-15T20:11:32.887Z,65.61
2022-09-15T20:14:05.949Z,65.61
2022-09-15T20:16:35.693Z,65.60
2022-09-15T20:19:05.576Z,65.84
2022-09-15T20:21:52.269Z,65.58
2022-09-15T20:24:22.387Z,65.50
2022-09-15T20:26:52.822Z,65.33
2022-09-15T20:29:24.030Z,65.22
2022-09-15T20:31:53.658Z,64.84
2022-09-15T20:34:22.927Z,64.64
2022-09-15T20:36:52.101Z,64.29
2022-09-15T20:39:22.695Z,64.04
2022-09-15T20:41:54.244Z,64.60
2022-09-15T20:44:24.368Z,64.13
2022-09-15T20:46:53.327Z,64.13
2022-09-15T20:49:22.102Z,64.64
2022-09-15T20:51:51.763Z,64.74
2022-09-15T20:54:21.073Z,65.52
2022-09-15T20:56:50.079Z,65.71
2022-09-15T20:59:19.580Z,65.64
2022-09-15T21:01:49.951Z,65.53
2022-09-15T21:04:19.350Z,65.20
2022-09-15T21:06:48.300Z,64.94
2022-09-15T21:09:17.265Z,64.94
2022-09-15T21:11:48.221Z,64.67
2022-09-15T21:14:20.426Z,64.52
2022-09-15T21:16:50.834Z,64.43
2022-09-15T21:19:19.558Z,64.80
2022-09-15T21:21:48.456Z,64.33
2022-09-15T21:24:17.278Z,64.49
2022-09-15T21:27:03.274Z,64.53
2022-09-15T21:29:32.307Z,64.41
2022-09-15T21:32:02.549Z,64.53
2022-09-15T21:34:31.953Z,64.61
2022-09-15T21:37:00.861Z,64.61
2022-09-15T21:39:30.062Z,64.87
2022-09-15T21:41:59.289Z,65.20
2022-09-15T21:44:27.895Z,65.03
2022-09-15T21:46:56.811Z,65.08
2022-09-15T21:49:27.190Z,65.09
2022-09-15T21:51:56.491Z,65.38
2022-09-15T21:54:25.228Z,65.63
2022-09-15T21:56:53.967Z,65.89
2022-09-15T21:59:23.022Z,65.88
2022-09-15T22:01:52.973Z,66.79
2022-09-15T22:04:22.191Z,67.41
2022-09-15T22:06:52.996Z,67.06
2022-09-15T22:09:21.964Z,66.54
2022-09-15T22:11:51.323Z,67.16
2022-09-15T22:14:21.620Z,66.95
2022-09-15T22:16:50.455Z,67.70
2022-09-15T22:19:19.720Z,67.79
2022-09-15T22:21:48.710Z,68.21
2022-09-15T22:24:18.904Z,68.27
2022-09-15T22:26:47.908Z,68.18
2022-09-15T22:29:16.959Z,68.35
2022-09-15T22:31:45.851Z,68.23
2022-09-15T22:34:14.988Z,68.54
2022-09-15T22:36:43.709Z,68.29
2022-09-15T22:39:13.628Z,68.78
2022-09-15T22:41:44.101Z,68.61
2022-09-15T22:44:20.274Z,68.73
2022-09-15T22:46:51.462Z,68.81
2022-09-15T22:49:20.390Z,68.60
2022-09-15T22:51:49.280Z,69.04
2022-09-15T22:54:18.276Z,69.33
2022-09-15T22:56:48.806Z,68.87
2022-09-15T22:59:17.727Z,69.28
2022-09-15T23:01:46.924Z,69.10
2022-09-15T23:04:16.358Z,69.25
2022-09-15T23:06:45.055Z,69.27
2022-09-15T23:09:13.967Z,69.48
2022-09-15T23:11:43.449Z,69.82
2022-09-15T23:14:17.779Z,69.63
2022-09-15T23:16:46.847Z,69.42
2022-09-15T23:19:15.996Z,69.53
2022-09-15T23:21:44.627Z,69.55
2022-09-15T23:24:14.241Z,69.57
2022-09-15T23:26:43.154Z,69.17
2022-09-15T23:29:12.027Z,69.67
2022-09-15T23:31:42.276Z,69.68
2022-09-15T23:34:11.373Z,69.85
2022-09-15T23:36:40.163Z,69.53
2022-09-15T23:39:08.920Z,69.39
2022-09-15T23:41:39.260Z,69.15
2022-09-15T23:44:08.458Z,68.49
2022-09-15T23:46:37.046Z,68.58
2022-09-15T23:49:07.547Z,68.86
2022-09-15T23:51:36.249Z,68.33
2022-09-15T23:54:05.344Z,67.99
2022-09-15T23:56:34.012Z,67.46
2022-09-15T23:59:02.889Z,67.47
